createdAt,value
2022-12-16T00:00:23.639Z,20.97
2022-12-16T00:02:51.389Z,22.83
2022-12-16T00:05:21.744Z,21.00
2022-12-16T00:07:48.938Z,21.63
2022-12-16T00:10:20.081Z,22.77
2022-12-16T00:12:46.717Z,23.03
2022-12-16T00:15:13.357Z,24.70
2022-12-16T00:17:40.059Z,22.30
2022-12-16T00:20:09.896Z,23.23
2022-12-16T00:22:36.621Z,23.87
2022-12-16T00:25:03.414Z,22.20
2022-12-16T00:27:32.389Z,23.93
2022-12-16T00:30:01.625Z,23.23
2022-12-16T00:32:30.765Z,24.37
2022-12-16T00:34:57.673Z,24.97
2022-12-16T00:37:29.136Z,24.90
2022-12-16T00:39:55.754Z,23.10
2022-12-16T00:42:22.465Z,21.93
2022-12-16T00:44:51.247Z,22.80
2022-12-16T00:47:20.898Z,22.37
2022-12-16T00:49:49.971Z,22.07
2022-12-16T00:52:16.637Z,24.10
2022-12-16T00:54:45.692Z,23.40
2022-12-16T00:57:12.358Z,24.40
2022-12-16T00:59:41.535Z,22.77
2022-12-16T01:02:08.564Z,23.10
2022-12-16T01:04:35.386Z,23.63
2022-12-16T01:07:02.193Z,25.67
2022-12-16T01:09:28.864Z,24.63
2022-12-16T01:11:55.507Z,23.13
2022-12-16T01:14:24.375Z,23.43
2022-12-16T01:16:53.559Z,23.17
2022-12-16T01:19:23.986Z,23.60
2022-12-16T01:21:50.674Z,23.33
2022-12-16T01:24:17.321Z,23.93
2022-12-16T01:26:46.079Z,23.27
2022-12-16T01:29:12.776Z,25.53
2022-12-16T01:31:41.776Z,23.83
2022-12-16T01:34:09.719Z,23.00
2022-12-16T01:36:36.387Z,21.97
2022-12-16T01:39:03.604Z,24.03
2022-12-16T01:41:32.850Z,23.43
2022-12-16T01:44:21.461Z,24.33
2022-12-16T01:46:59.484Z,23.83
2022-12-16T01:49:46.588Z,23.27
2022-12-16T01:52:18.956Z,24.20
2022-12-16T01:54:54.727Z,22.40
2022-12-16T01:57:27.796Z,23.57
2022-12-16T01:59:58.734Z,23.50
2022-12-16T02:02:25.746Z,20.70
2022-12-16T02:05:14.028Z,23.83
2022-12-16T02:07:40.685Z,20.53
2022-12-16T02:10:12.101Z,20.53
2022-12-16T02:12:52.890Z,21.53
2022-12-16T02:15:35.042Z,23.07
2022-12-16T02:18:04.544Z,22.00
2022-12-16T02:20:55.389Z,21.33
2022-12-16T02:23:34.687Z,20.40
2022-12-16T02:26:07.914Z,22.73
2022-12-16T02:28:50.268Z,22.07
2022-12-16T02:31:33.228Z,22.67
2022-12-16T02:34:02.662Z,22.70
2022-12-16T02:36:52.677Z,22.73
2022-12-16T02:40:02.743Z,22.50
2022-12-16T02:42:44.849Z,21.40
2022-12-16T02:45:19.756Z,22.07
2022-12-16T02:47:46.916Z,21.07
2022-12-16T02:50:49.119Z,20.80
2022-12-16T02:53:15.901Z,20.90
2022-12-16T02:56:01.199Z,20.70
2022-12-16T02:59:03.794Z,19.73
2022-12-16T03:01:45.585Z,20.67
2022-12-16T03:04:20.696Z,19.70
2022-12-16T03:06:49.911Z,21.93
2022-12-16T03:09:24.028Z,19.50
2022-12-16T03:11:52.079Z,21.07
2022-12-16T03:14:20.354Z,21.17
2022-12-16T03:16:51.188Z,20.50
2022-12-16T03:19:19.525Z,21.43
2022-12-16T03:21:59.361Z,19.00
2022-12-16T03:24:26.359Z,19.00
2022-12-16T03:27:14.128Z,19.30
2022-12-16T03:30:09.365Z,19.60
2022-12-16T03:32:46.447Z,18.47
2022-12-16T03:35:20.427Z,18.73
2022-12-16T03:37:51.114Z,19.43
2022-12-16T03:40:21.588Z,19.77
2022-12-16T03:42:52.638Z,18.50
2022-12-16T03:45:30.450Z,18.33
2022-12-16T03:48:02.961Z,18.97
2022-12-16T03:50:32.666Z,18.83
2022-12-16T03:53:00.124Z,19.00
2022-12-16T03:55:27.379Z,19.00
2022-12-16T03:57:54.415Z,20.97
2022-12-16T04:00:21.476Z,20.07
2022-12-16T04:02:50.666Z,20.70
2022-12-16T04:05:22.836Z,18.67
2022-12-16T04:07:53.594Z,17.70
2022-12-16T04:10:41.950Z,17.70
2022-12-16T04:13:31.220Z,19.60
2022-12-16T04:16:19.642Z,18.67
2022-12-16T04:19:05.555Z,18.53
2022-12-16T04:21:50.877Z,16.53
2022-12-16T04:24:23.941Z,19.40
2022-12-16T04:27:15.316Z,18.40
2022-12-16T04:30:01.078Z,17.57
2022-12-16T04:32:48.182Z,19.13
2022-12-16T04:35:37.886Z,18.63
2022-12-16T04:38:23.434Z,17.07
2022-12-16T04:41:08.778Z,17.53
2022-12-16T04:43:56.717Z,18.07
2022-12-16T04:46:44.900Z,16.27
2022-12-16T04:49:32.628Z,17.33
2022-12-16T04:52:18.001Z,18.87
2022-12-16T04:55:06.032Z,15.77
2022-12-16T04:57:54.022Z,17.27
2022-12-16T05:00:40.067Z,17.27
2022-12-16T05:03:25.306Z,15.80
2022-12-16T05:06:10.753Z,15.50
2022-12-16T05:08:56.318Z,18.20
2022-12-16T05:11:42.004Z,16.57
2022-12-16T05:14:29.981Z,17.10
2022-12-16T05:17:15.410Z,16.53
2022-12-16T05:20:00.928Z,16.90
2022-12-16T05:22:46.183Z,17.03
2022-12-16T05:25:31.774Z,15.90
2022-12-16T05:28:16.872Z,17.75
2022-12-16T05:31:02.494Z,16.80
2022-12-16T05:33:47.927Z,17.80
2022-12-16T05:36:33.277Z,16.57
2022-12-16T05:39:18.703Z,18.27
2022-12-16T05:42:04.095Z,16.57
2022-12-16T05:44:53.968Z,16.67
2022-12-16T05:47:39.449Z,17.03
2022-12-16T05:50:25.408Z,15.43
2022-12-16T05:53:14.931Z,16.83
2022-12-16T05:56:01.486Z,16.48
2022-12-16T05:58:47.901Z,15.20
2022-12-16T06:01:33.998Z,15.47
2022-12-16T06:04:19.487Z,14.97
2022-12-16T06:07:04.844Z,13.70
2022-12-16T06:09:56.130Z,15.37
2022-12-16T06:12:44.328Z,14.63
2022-12-16T06:15:31.860Z,13.57
2022-12-16T06:18:19.177Z,15.63
2022-12-16T06:21:04.747Z,15.67
2022-12-16T06:23:52.138Z,14.37
2022-12-16T06:26:37.553Z,13.77
2022-12-16T06:29:27.499Z,15.17
2022-12-16T06:32:12.940Z,15.20
2022-12-16T06:34:58.334Z,12.70
2022-12-16T06:37:43.777Z,13.20
2022-12-16T06:40:29.392Z,14.10
2022-12-16T06:43:17.263Z,13.03
2022-12-16T06:46:03.462Z,13.60
2022-12-16T06:48:51.377Z,13.20
2022-12-16T06:51:36.819Z,13.93
2022-12-16T06:54:22.355Z,14.07
2022-12-16T06:57:10.373Z,14.63
2022-12-16T06:59:55.742Z,13.50
2022-12-16T07:02:41.501Z,11.97
2022-12-16T07:05:27.222Z,13.77
2022-12-16T07:08:12.600Z,12.30
2022-12-16T07:11:04.844Z,14.20
2022-12-16T07:13:59.102Z,13.43
2022-12-16T07:16:44.656Z,12.02
2022-12-16T07:19:31.607Z,11.97
2022-12-16T07:22:17.029Z,15.17
2022-12-16T07:25:02.417Z,11.70
2022-12-16T07:27:47.739Z,14.00
2022-12-16T07:30:35.171Z,13.57
2022-12-16T07:33:20.608Z,12.67
2022-12-16T07:36:05.916Z,12.13
2022-12-16T07:38:51.382Z,12.23
2022-12-16T07:41:36.809Z,11.90
2022-12-16T07:44:22.160Z,12.20
2022-12-16T07:47:07.464Z,11.80
2022-12-16T07:49:53.873Z,11.33
2022-12-16T07:52:41.319Z,12.40
2022-12-16T07:55:26.961Z,11.67
2022-12-16T07:58:12.383Z,12.73
2022-12-16T08:00:57.988Z,13.33
2022-12-16T08:03:45.719Z,15.53
2022-12-16T08:06:33.028Z,12.13
2022-12-16T08:09:20.199Z,12.80
2022-12-16T08:12:05.624Z,11.95
2022-12-16T08:14:50.930Z,11.20
2022-12-16T08:17:37.804Z,10.50
2022-12-16T08:20:23.363Z,9.10
2022-12-16T08:23:08.683Z,9.60
2022-12-16T08:25:56.642Z,9.17
2022-12-16T08:28:45.051Z,10.87
2022-12-16T08:31:30.565Z,12.27
2022-12-16T08:34:18.671Z,11.57
2022-12-16T08:37:06.013Z,10.07
2022-12-16T08:40:11.079Z,11.77
2022-12-16T08:42:56.862Z,8.43
2022-12-16T08:45:44.842Z,10.90
2022-12-16T08:48:30.169Z,8.53
2022-12-16T08:51:20.177Z,10.20
2022-12-16T08:54:05.719Z,10.27
2022-12-16T08:56:50.939Z,9.73
2022-12-16T08:59:39.006Z,8.83
2022-12-16T09:02:24.640Z,9.10
2022-12-16T09:05:09.811Z,9.77
2022-12-16T09:07:55.261Z,9.33
2022-12-16T09:10:40.817Z,9.63
2022-12-16T09:13:30.607Z,8.60
2022-12-16T09:16:19.379Z,9.27
2022-12-16T09:19:05.623Z,11.37
2022-12-16T09:21:51.187Z,10.73
2022-12-16T09:24:41.668Z,9.97
2022-12-16T09:27:27.014Z,10.70
2022-12-16T09:30:12.500Z,10.13
2022-12-16T09:33:03.781Z,9.67
2022-12-16T09:35:49.145Z,9.77
2022-12-16T09:38:35.192Z,8.07
2022-12-16T09:41:53.551Z,10.87
2022-12-16T09:44:58.285Z,10.17
2022-12-16T09:48:05.253Z,10.20
2022-12-16T09:50:51.251Z,8.57
2022-12-16T09:53:41.509Z,8.47
2022-12-16T09:56:36.394Z,8.10
2022-12-16T09:59:29.853Z,8.57
2022-12-16T10:02:15.467Z,8.80
2022-12-16T10:05:04.708Z,9.47
2022-12-16T10:07:54.335Z,7.63
2022-12-16T10:10:52.403Z,8.57
2022-12-16T10:14:06.673Z,8.00
2022-12-16T10:17:18.474Z,7.60
2022-12-16T10:20:25.910Z,7.43
2022-12-16T10:23:44.856Z,7.67
2022-12-16T10:26:38.663Z,7.03
2022-12-16T10:29:38.885Z,5.17
2022-12-16T10:32:40.447Z,5.80
2022-12-16T10:35:41.747Z,8.87
2022-12-16T10:38:41.130Z,5.27
2022-12-16T10:41:30.612Z,7.53
2022-12-16T10:44:17.099Z,5.93
2022-12-16T10:47:02.408Z,5.87
2022-12-16T10:49:54.751Z,6.63
2022-12-16T10:52:40.447Z,5.10
2022-12-16T10:55:38.610Z,5.90
2022-12-16T10:58:47.493Z,5.60
2022-12-16T11:01:44.685Z,6.43
2022-12-16T11:04:56.884Z,6.63
2022-12-16T11:08:10.798Z,6.00
2022-12-16T11:10:58.568Z,6.80
2022-12-16T11:13:46.051Z,6.90
2022-12-16T11:16:41.637Z,7.70
2022-12-16T11:19:48.386Z,7.32
2022-12-16T11:22:39.613Z,6.80
2022-12-16T11:25:35.796Z,7.07
2022-12-16T11:28:26.592Z,8.07
2022-12-16T11:31:14.923Z,6.07
2022-12-16T11:34:03.697Z,6.65
2022-12-16T11:36:51.695Z,5.07
2022-12-16T11:39:43.088Z,6.90
2022-12-16T11:42:36.819Z,6.17
2022-12-16T11:45:23.874Z,6.90
2022-12-16T11:48:20.542Z,6.07
2022-12-16T11:51:15.024Z,6.43
2022-12-16T11:54:18.850Z,5.13
2022-12-16T11:57:04.755Z,5.97
2022-12-16T12:00:15.316Z,6.23
2022-12-16T12:03:30.094Z,6.40
2022-12-16T12:06:41.523Z,5.80
2022-12-16T12:09:39.654Z,6.77
2022-12-16T12:12:43.823Z,6.27
2022-12-16T12:15:29.112Z,7.63
2022-12-16T12:18:24.714Z,6.20
2022-12-16T12:21:20.087Z,5.43
2022-12-16T12:24:30.368Z,6.10
2022-12-16T12:27:49.133Z,6.83
2022-12-16T12:30:38.727Z,5.87
2022-12-16T12:33:33.286Z,5.47
2022-12-16T12:36:37.886Z,5.25
2022-12-16T12:39:32.418Z,7.57
2022-12-16T12:42:36.421Z,5.20
2022-12-16T12:45:24.844Z,6.60
2022-12-16T12:48:29.747Z,6.13
2022-12-16T12:51:57.545Z,6.17
2022-12-16T12:54:48.579Z,6.20
2022-12-16T12:57:38.835Z,7.17
2022-12-16T13:00:45.792Z,7.40
2022-12-16T13:03:57.071Z,7.70
2022-12-16T13:06:45.392Z,6.50
2022-12-16T13:09:53.943Z,6.23
2022-12-16T13:12:53.032Z,5.83
2022-12-16T13:15:57.089Z,6.63
2022-12-16T13:18:50.032Z,6.10
2022-12-16T13:21:57.263Z,5.47
2022-12-16T13:24:45.348Z,5.43
2022-12-16T13:27:35.524Z,6.50
2022-12-16T13:30:22.729Z,6.30
2022-12-16T13:33:20.319Z,7.07
2022-12-16T13:36:17.799Z,6.93
2022-12-16T13:39:12.375Z,5.77
2022-12-16T13:41:57.784Z,8.03
2022-12-16T13:45:01.244Z,7.67
2022-12-16T13:48:09.259Z,6.90
2022-12-16T13:51:06.330Z,5.70
2022-12-16T13:54:05.285Z,6.60
2022-12-16T13:56:59.770Z,6.10
2022-12-16T13:59:50.766Z,7.07
2022-12-16T14:02:51.632Z,6.53
2022-12-16T14:06:01.934Z,6.20
2022-12-16T14:08:55.104Z,6.53
2022-12-16T14:11:56.072Z,6.40
2022-12-16T14:15:01.967Z,8.37
2022-12-16T14:17:55.742Z,7.07
2022-12-16T14:20:56.634Z,6.97
2022-12-16T14:23:56.985Z,6.13
2022-12-16T14:26:43.615Z,7.53
2022-12-16T14:29:37.715Z,6.70
2022-12-16T14:33:03.109Z,7.40
2022-12-16T14:35:50.457Z,7.13
2022-12-16T14:38:47.476Z,5.67
2022-12-16T14:41:42.974Z,6.47
2022-12-16T14:44:43.372Z,7.77
2022-12-16T14:47:37.093Z,6.20
2022-12-16T14:50:30.243Z,6.83
2022-12-16T14:53:38.555Z,4.77
2022-12-16T14:56:37.179Z,6.17
2022-12-16T14:59:32.423Z,5.10
2022-12-16T15:02:30.527Z,6.93
2022-12-16T15:05:15.839Z,5.83
2022-12-16T15:08:01.505Z,5.60
2022-12-16T15:10:47.191Z,5.03
2022-12-16T15:13:36.459Z,6.57
2022-12-16T15:16:23.777Z,5.47
2022-12-16T15:19:17.552Z,6.70
2022-12-16T15:22:03.599Z,5.63
2022-12-16T15:24:53.986Z,6.10
2022-12-16T15:27:51.988Z,4.67
2022-12-16T15:30:56.091Z,6.27
2022-12-16T15:33:44.185Z,6.77
2022-12-16T15:36:35.268Z,5.47
2022-12-16T15:39:20.634Z,5.27
2022-12-16T15:42:06.555Z,7.23
2022-12-16T15:44:52.423Z,6.70
2022-12-16T15:47:44.973Z,5.90
2022-12-16T15:50:34.502Z,6.00
2022-12-16T15:53:47.613Z,5.95
2022-12-16T15:56:59.278Z,7.00
2022-12-16T15:59:50.180Z,8.57
2022-12-16T16:02:44.903Z,7.17
2022-12-16T16:05:50.958Z,6.57
2022-12-16T16:08:39.424Z,7.10
2022-12-16T16:11:24.796Z,6.23
2022-12-16T16:14:14.185Z,6.37
2022-12-16T16:16:59.982Z,9.53
2022-12-16T16:19:45.958Z,7.40
2022-12-16T16:22:33.321Z,7.40
2022-12-16T16:25:18.662Z,9.60
2022-12-16T16:28:06.103Z,6.80
2022-12-16T16:30:54.260Z,6.37
2022-12-16T16:33:39.582Z,6.47
2022-12-16T16:36:36.650Z,8.20
2022-12-16T16:39:21.936Z,9.93
2022-12-16T16:42:07.457Z,7.83
2022-12-16T16:45:00.632Z,9.33
2022-12-16T16:47:46.146Z,6.67
2022-12-16T16:50:34.085Z,5.60
2022-12-16T16:53:19.601Z,8.83
2022-12-16T16:56:05.232Z,7.17
2022-12-16T16:58:53.159Z,7.07
2022-12-16T17:01:40.721Z,7.00
2022-12-16T17:04:26.054Z,7.83
2022-12-16T17:07:11.193Z,6.10
2022-12-16T17:09:56.661Z,9.80
2022-12-16T17:12:49.419Z,9.40
2022-12-16T17:15:35.004Z,8.07
2022-12-16T17:18:20.753Z,7.23
2022-12-16T17:21:06.296Z,7.83
2022-12-16T17:23:52.152Z,8.33
2022-12-16T17:26:40.255Z,6.80
2022-12-16T17:29:25.844Z,8.90
2022-12-16T17:32:11.276Z,7.80
2022-12-16T17:34:56.940Z,8.03
2022-12-16T17:37:42.444Z,8.87
2022-12-16T17:40:28.363Z,7.70
2022-12-16T17:43:13.709Z,7.40
2022-12-16T17:45:59.022Z,10.23
2022-12-16T17:48:46.901Z,7.17
2022-12-16T17:51:32.304Z,8.23
2022-12-16T17:54:23.683Z,10.20
2022-12-16T17:57:11.592Z,9.23
2022-12-16T18:00:07.430Z,8.50
2022-12-16T18:02:53.148Z,7.50
2022-12-16T18:05:44.387Z,7.40
2022-12-16T18:08:30.087Z,7.40
2022-12-16T18:11:17.942Z,6.13
2022-12-16T18:14:05.173Z,9.20
2022-12-16T18:16:50.639Z,7.33
2022-12-16T18:19:36.409Z,5.83
2022-12-16T18:22:22.386Z,8.00
2022-12-16T18:25:07.954Z,6.53
2022-12-16T18:27:55.473Z,6.87
2022-12-16T18:30:40.856Z,5.73
2022-12-16T18:33:26.365Z,6.13
2022-12-16T18:36:14.395Z,6.22
2022-12-16T18:38:59.888Z,6.00
2022-12-16T18:41:48.710Z,7.17
2022-12-16T18:44:35.952Z,6.43
2022-12-16T18:47:21.496Z,7.10
2022-12-16T18:50:06.895Z,7.67
2022-12-16T18:52:52.216Z,6.20
2022-12-16T18:55:37.770Z,6.17
2022-12-16T19:01:30.911Z,6.77
2022-12-16T19:04:16.865Z,6.43
2022-12-16T19:07:04.823Z,8.30
2022-12-16T19:09:50.018Z,6.53
2022-12-16T19:12:35.481Z,6.93
2022-12-16T19:15:20.767Z,6.33
2022-12-16T19:18:06.284Z,8.13
2022-12-16T19:20:51.769Z,6.13
2022-12-16T19:23:37.615Z,7.63
2022-12-16T19:26:25.303Z,5.33
2022-12-16T19:29:13.316Z,9.63
2022-12-16T19:32:00.726Z,6.70
2022-12-16T19:34:45.928Z,4.90
2022-12-16T19:37:31.480Z,6.93
2022-12-16T19:40:18.703Z,6.57
2022-12-16T19:43:04.200Z,6.13
2022-12-16T19:45:49.572Z,6.60
2022-12-16T19:48:37.419Z,4.93
2022-12-16T19:51:23.123Z,6.73
2022-12-16T19:54:08.459Z,5.47
2022-12-16T19:56:55.266Z,6.20
2022-12-16T19:59:40.931Z,6.37
2022-12-16T20:02:29.866Z,7.13
2022-12-16T20:05:15.349Z,5.77
2022-12-16T20:08:02.800Z,6.17
2022-12-16T20:10:48.215Z,6.75
2022-12-16T20:13:33.691Z,6.67
2022-12-16T20:16:23.448Z,6.87
2022-12-16T20:19:08.824Z,8.87
2022-12-16T20:21:56.251Z,6.37
2022-12-16T20:24:42.849Z,7.20
2022-12-16T20:27:29.374Z,7.80
2022-12-16T20:30:14.761Z,8.07
2022-12-16T20:33:00.397Z,7.57
2022-12-16T20:35:45.718Z,8.40
2022-12-16T20:38:33.117Z,8.70
2022-12-16T20:41:22.911Z,8.67
2022-12-16T20:44:08.936Z,7.13
2022-12-16T20:46:56.071Z,9.33
2022-12-16T20:49:44.337Z,8.83
2022-12-16T20:52:29.766Z,7.00
2022-12-16T20:55:14.978Z,8.00
2022-12-16T20:58:00.498Z,9.77
2022-12-16T21:00:46.098Z,8.70
2022-12-16T21:03:31.388Z,9.53
2022-12-16T21:06:16.714Z,9.10
2022-12-16T21:09:04.713Z,9.57
2022-12-16T21:11:50.161Z,10.27
2022-12-16T21:14:35.725Z,9.90
2022-12-16T21:17:23.177Z,11.57
2022-12-16T21:20:08.703Z,10.40
2022-12-16T21:22:54.509Z,9.68
2022-12-16T21:25:41.450Z,11.67
2022-12-16T21:28:26.897Z,9.23
2022-12-16T21:31:12.323Z,10.27
2022-12-16T21:33:57.745Z,10.47
2022-12-16T21:36:43.244Z,11.07
2022-12-16T21:39:28.667Z,10.40
2022-12-16T21:42:14.136Z,10.97
2022-12-16T21:45:01.510Z,11.57
2022-12-16T21:47:48.903Z,9.97
2022-12-16T21:50:34.403Z,11.53
2022-12-16T21:53:19.917Z,9.17
2022-12-16T21:56:11.442Z,9.43
2022-12-16T21:58:56.868Z,11.43
2022-12-16T22:01:42.270Z,10.07
2022-12-16T22:04:28.167Z,9.75
2022-12-16T22:07:13.522Z,10.27
2022-12-16T22:09:58.929Z,10.90
2022-12-16T22:12:44.330Z,9.73
2022-12-16T22:15:29.651Z,9.30
2022-12-16T22:18:15.095Z,10.05
2022-12-16T22:21:00.459Z,9.17
2022-12-16T22:23:49.057Z,11.67
2022-12-16T22:26:34.508Z,11.27
2022-12-16T22:29:19.863Z,10.30
2022-12-16T22:32:05.250Z,9.67
2022-12-16T22:34:50.675Z,10.63
2022-12-16T22:37:36.253Z,9.33
2022-12-16T22:40:21.781Z,11.37
2022-12-16T22:43:07.690Z,9.93
2022-12-16T22:45:53.039Z,10.90
2022-12-16T22:48:41.388Z,10.00
2022-12-16T22:51:34.016Z,10.73
2022-12-16T22:54:19.586Z,10.13
2022-12-16T22:57:05.179Z,9.97
2022-12-16T22:59:50.511Z,10.07
2022-12-16T23:02:35.859Z,10.53
2022-12-16T23:05:27.555Z,10.13
2022-12-16T23:08:13.454Z,8.53
2022-12-16T23:11:01.492Z,13.13
2022-12-16T23:13:46.902Z,10.90
2022-12-16T23:16:32.283Z,9.03
2022-12-16T23:19:17.893Z,10.67
2022-12-16T23:22:03.039Z,9.87
2022-12-16T23:24:50.491Z,10.10
2022-12-16T23:27:38.351Z,8.07
2022-12-16T23:30:24.387Z,9.95
2022-12-16T23:33:18.419Z,9.87
2022-12-16T23:36:03.934Z,9.10
2022-12-16T23:38:49.303Z,10.50
2022-12-16T23:41:34.817Z,9.10
2022-12-16T23:44:20.728Z,10.25
2022-12-16T23:47:06.005Z,10.77
2022-12-16T23:49:51.470Z,10.90
2022-12-16T23:52:37.177Z,9.27
2022-12-16T23:55:22.711Z,9.63
2022-12-16T23:58:19.237Z,9.97
